Etusivu
METAR-TAF:

METAR-TAF

Lentoasemat :

Eastmain River, Quebec, Kanada

Leveyspiiri: 52-14N, Pituuspiiri: 078-31W, korkeus merenpinnasta: 7 m

Tämänhetkinen sää

Tämä raportti tehtiin 19 minuuttia sitten, kello 14.00 UTC
Tuuli 9 kn idästä
Lämpötila -3°C
Kosteus 74%
Ilmanpaine 1021 hPa
Näkyvyys: 24.1 km
Muutamia pilviä 20000 ft:n korkeudessa

METAR: CZEM 291400Z 10009KT 15SM FEW200 M03/M07 A3014 RMK CI2 SLP208

Aika: 10:19 (14:19 UTC)


TAF: puuttuu

Säähavainnot ja -ennusteet yli 4000 lentoasemalta (METAR- ja TAF-raportit).

Käytössä olevat sääasemat on merkitty karttaan keltaisilla ja punaisilla pisteillä.

Aseta hiiri pisteen päälle nähdäksesi sääaseman nimen.

Klikkaa sitten nähdäksesi säähavainnot ja -ennusteet.

Kartan vaihtaminen: klikkaa mustalla rastilla varustettuja vihreitä pisteitä, niin voit zoomata sisään; viivalla varustettua vihreää pistettä, niin voit zoomata ulos tai vihreitä nuolia, niin pääset viereisille kartoille.


METAR-TAF: